sensor_id;sensor_type;location;lat;lon;timestamp;temperature;humidity
12911;DHT22;6523;49.758;6.120;2022-09-01T00:01:28;14.40;99.90
12911;DHT22;6523;49.758;6.120;2022-09-01T00:03:57;14.50;99.90
12911;DHT22;6523;49.758;6.120;2022-09-01T00:06:28;14.60;99.90
12911;DHT22;6523;49.758;6.120;2022-09-01T00:08:56;14.50;99.90
12911;DHT22;6523;49.758;6.120;2022-09-01T00:11:24;14.60;99.90
12911;DHT22;6523;49.758;6.120;2022-09-01T00:13:51;14.60;99.90
12911;DHT22;6523;49.758;6.120;2022-09-01T00:16:18;14.60;99.90
12911;DHT22;6523;49.758;6.120;2022-09-01T00:18:46;14.70;99.90
12911;DHT22;6523;49.758;6.120;2022-09-01T00:21:14;14.50;99.90
12911;DHT22;6523;49.758;6.120;2022-09-01T00:23:40;14.60;99.90
12911;DHT22;6523;49.758;6.120;2022-09-01T00:26:05;14.60;99.90
12911;DHT22;6523;49.758;6.120;2022-09-01T00:28:35;14.40;99.90
12911;DHT22;6523;49.758;6.120;2022-09-01T00:31:02;14.40;99.90
12911;DHT22;6523;49.758;6.120;2022-09-01T00:33:29;14.40;99.90
12911;DHT22;6523;49.758;6.120;2022-09-01T00:35:54;14.20;99.90
12911;DHT22;6523;49.758;6.120;2022-09-01T00:38:20;14.10;99.90
12911;DHT22;6523;49.758;6.120;2022-09-01T00:40:46;14.00;99.90
12911;DHT22;6523;49.758;6.120;2022-09-01T00:43:28;13.90;99.90
12911;DHT22;6523;49.758;6.120;2022-09-01T00:46:01;13.80;99.90
12911;DHT22;6523;49.758;6.120;2022-09-01T00:48:27;13.90;99.90
12911;DHT22;6523;49.758;6.120;2022-09-01T00:50:52;14.00;99.90
12911;DHT22;6523;49.758;6.120;2022-09-01T00:53:18;14.10;99.90
12911;DHT22;6523;49.758;6.120;2022-09-01T00:55:44;14.10;99.90
12911;DHT22;6523;49.758;6.120;2022-09-01T00:58:10;14.00;99.90
12911;DHT22;6523;49.758;6.120;2022-09-01T01:00:37;14.00;99.90
12911;DHT22;6523;49.758;6.120;2022-09-01T01:03:09;13.90;99.90
12911;DHT22;6523;49.758;6.120;2022-09-01T01:05:39;13.80;99.90
12911;DHT22;6523;49.758;6.120;2022-09-01T01:08:07;13.80;99.90
12911;DHT22;6523;49.758;6.120;2022-09-01T01:10:37;13.80;99.90
12911;DHT22;6523;49.758;6.120;2022-09-01T01:13:08;13.80;99.90
12911;DHT22;6523;49.758;6.120;2022-09-01T01:15:34;13.80;99.90
12911;DHT22;6523;49.758;6.120;2022-09-01T01:18:00;13.80;99.90
12911;DHT22;6523;49.758;6.120;2022-09-01T01:20:29;13.70;99.90
12911;DHT22;6523;49.758;6.120;2022-09-01T01:23:38;13.60;99.90
12911;DHT22;6523;49.758;6.120;2022-09-01T01:26:07;13.60;99.90
12911;DHT22;6523;49.758;6.120;2022-09-01T01:28:39;13.40;99.90
12911;DHT22;6523;49.758;6.120;2022-09-01T01:31:06;13.40;99.90
12911;DHT22;6523;49.758;6.120;2022-09-01T01:33:39;13.50;99.90
12911;DHT22;6523;49.758;6.120;2022-09-01T01:36:08;13.40;99.90
12911;DHT22;6523;49.758;6.120;2022-09-01T01:38:38;13.40;99.90
12911;DHT22;6523;49.758;6.120;2022-09-01T01:41:06;13.40;99.90
12911;DHT22;6523;49.758;6.120;2022-09-01T01:43:31;13.40;99.90
12911;DHT22;6523;49.758;6.120;2022-09-01T01:45:57;13.40;99.90
12911;DHT22;6523;49.758;6.120;2022-09-01T01:48:27;13.30;99.90
12911;DHT22;6523;49.758;6.120;2022-09-01T01:50:55;13.40;99.90
12911;DHT22;6523;49.758;6.120;2022-09-01T01:53:24;13.40;99.90
12911;DHT22;6523;49.758;6.120;2022-09-01T01:55:49;13.40;99.90
12911;DHT22;6523;49.758;6.120;2022-09-01T01:58:20;13.30;99.90
12911;DHT22;6523;49.758;6.120;2022-09-01T02:00:48;13.30;99.90
12911;DHT22;6523;49.758;6.120;2022-09-01T02:03:16;13.40;99.90
12911;DHT22;6523;49.758;6.120;2022-09-01T02:05:45;13.20;99.90
12911;DHT22;6523;49.758;6.120;2022-09-01T02:08:11;13.10;99.90
12911;DHT22;6523;49.758;6.120;2022-09-01T02:10:43;13.10;99.90
12911;DHT22;6523;49.758;6.120;2022-09-01T02:13:11;13.10;99.90
12911;DHT22;6523;49.758;6.120;2022-09-01T02:15:49;13.10;99.90
12911;DHT22;6523;49.758;6.120;2022-09-01T02:18:17;13.00;99.90
12911;DHT22;6523;49.758;6.120;2022-09-01T02:20:46;12.90;99.90
12911;DHT22;6523;49.758;6.120;2022-09-01T02:23:14;13.00;99.90
12911;DHT22;6523;49.758;6.120;2022-09-01T02:25:44;13.10;99.90
12911;DHT22;6523;49.758;6.120;2022-09-01T02:28:12;13.00;99.90
12911;DHT22;6523;49.758;6.120;2022-09-01T02:30:45;12.90;99.90
12911;DHT22;6523;49.758;6.120;2022-09-01T02:33:15;12.90;99.90
12911;DHT22;6523;49.758;6.120;2022-09-01T02:35:52;12.90;99.90
12911;DHT22;6523;49.758;6.120;2022-09-01T02:38:18;13.00;99.90
12911;DHT22;6523;49.758;6.120;2022-09-01T02:40:46;12.90;99.90
12911;DHT22;6523;49.758;6.120;2022-09-01T02:43:15;12.80;99.90
12911;DHT22;6523;49.758;6.120;2022-09-01T02:45:45;12.90;99.90
12911;DHT22;6523;49.758;6.120;2022-09-01T02:48:12;12.80;99.90
12911;DHT22;6523;49.758;6.120;2022-09-01T02:50:40;12.70;99.90
12911;DHT22;6523;49.758;6.120;2022-09-01T02:53:06;12.70;99.90
12911;DHT22;6523;49.758;6.120;2022-09-01T02:55:35;12.70;99.90
12911;DHT22;6523;49.758;6.120;2022-09-01T02:58:01;12.60;99.90
12911;DHT22;6523;49.758;6.120;2022-09-01T03:00:26;12.50;99.90
12911;DHT22;6523;49.758;6.120;2022-09-01T03:02:59;12.50;99.90
12911;DHT22;6523;49.758;6.120;2022-09-01T03:05:27;12.60;99.90
12911;DHT22;6523;49.758;6.120;2022-09-01T03:07:56;12.60;99.90
12911;DHT22;6523;49.758;6.120;2022-09-01T03:10:25;12.70;99.90
12911;DHT22;6523;49.758;6.120;2022-09-01T03:12:53;12.70;99.90
12911;DHT22;6523;49.758;6.120;2022-09-01T03:15:19;12.70;99.90
12911;DHT22;6523;49.758;6.120;2022-09-01T03:17:46;12.50;99.90
12911;DHT22;6523;49.758;6.120;2022-09-01T03:20:13;12.60;99.90
12911;DHT22;6523;49.758;6.120;2022-09-01T03:22:39;12.50;99.90
12911;DHT22;6523;49.758;6.120;2022-09-01T03:25:05;12.40;99.90
12911;DHT22;6523;49.758;6.120;2022-09-01T03:27:30;12.30;99.90
12911;DHT22;6523;49.758;6.120;2022-09-01T03:29:57;12.40;99.90
12911;DHT22;6523;49.758;6.120;2022-09-01T03:32:23;12.40;99.90
12911;DHT22;6523;49.758;6.120;2022-09-01T03:34:48;12.30;99.90
12911;DHT22;6523;49.758;6.120;2022-09-01T03:37:15;12.40;99.90
12911;DHT22;6523;49.758;6.120;2022-09-01T03:39:41;12.20;99.90
12911;DHT22;6523;49.758;6.120;2022-09-01T03:42:07;12.20;99.90
12911;DHT22;6523;49.758;6.120;2022-09-01T03:44:36;12.20;99.90
12911;DHT22;6523;49.758;6.120;2022-09-01T03:47:04;12.20;99.90
12911;DHT22;6523;49.758;6.120;2022-09-01T03:49:34;12.30;99.90
12911;DHT22;6523;49.758;6.120;2022-09-01T03:52:04;12.20;99.90
12911;DHT22;6523;49.758;6.120;2022-09-01T03:54:33;12.20;99.90
12911;DHT22;6523;49.758;6.120;2022-09-01T03:56:59;12.10;99.90
12911;DHT22;6523;49.758;6.120;2022-09-01T03:59:25;12.20;99.90
12911;DHT22;6523;49.758;6.120;2022-09-01T04:01:53;12.30;99.90
12911;DHT22;6523;49.758;6.120;2022-09-01T04:04:18;12.10;99.90
12911;DHT22;6523;49.758;6.120;2022-09-01T04:06:45;12.10;99.90
12911;DHT22;6523;49.758;6.120;2022-09-01T04:09:11;12.10;99.90
12911;DHT22;6523;49.758;6.120;2022-09-01T04:11:37;12.00;99.90
12911;DHT22;6523;49.758;6.120;2022-09-01T04:14:04;11.90;99.90
12911;DHT22;6523;49.758;6.120;2022-09-01T04:16:31;11.80;99.90
12911;DHT22;6523;49.758;6.120;2022-09-01T04:19:22;11.90;99.90
12911;DHT22;6523;49.758;6.120;2022-09-01T04:21:59;11.80;99.90
12911;DHT22;6523;49.758;6.120;2022-09-01T04:24:27;11.80;99.90
12911;DHT22;6523;49.758;6.120;2022-09-01T04:26:55;11.70;99.90
12911;DHT22;6523;49.758;6.120;2022-09-01T04:29:22;11.80;99.90
12911;DHT22;6523;49.758;6.120;2022-09-01T04:31:52;11.90;99.90
12911;DHT22;6523;49.758;6.120;2022-09-01T04:34:19;12.00;99.90
12911;DHT22;6523;49.758;6.120;2022-09-01T04:36:47;11.90;99.90
12911;DHT22;6523;49.758;6.120;2022-09-01T04:39:13;11.80;99.90
12911;DHT22;6523;49.758;6.120;2022-09-01T04:41:43;11.70;99.90
12911;DHT22;6523;49.758;6.120;2022-09-01T04:44:15;11.60;99.90
12911;DHT22;6523;49.758;6.120;2022-09-01T04:46:43;11.70;99.90
12911;DHT22;6523;49.758;6.120;2022-09-01T04:49:13;11.70;99.90
12911;DHT22;6523;49.758;6.120;2022-09-01T04:51:45;11.80;99.90
12911;DHT22;6523;49.758;6.120;2022-09-01T04:54:12;11.70;99.90
12911;DHT22;6523;49.758;6.120;2022-09-01T04:56:39;11.60;99.90
12911;DHT22;6523;49.758;6.120;2022-09-01T04:59:05;11.70;99.90
12911;DHT22;6523;49.758;6.120;2022-09-01T05:01:33;11.60;99.90
12911;DHT22;6523;49.758;6.120;2022-09-01T05:04:09;11.60;99.90
12911;DHT22;6523;49.758;6.120;2022-09-01T05:06:39;11.60;99.90
12911;DHT22;6523;49.758;6.120;2022-09-01T05:09:08;11.60;99.90
12911;DHT22;6523;49.758;6.120;2022-09-01T05:11:34;11.70;99.90
12911;DHT22;6523;49.758;6.120;2022-09-01T05:14:02;11.80;99.90
12911;DHT22;6523;49.758;6.120;2022-09-01T05:16:29;11.80;99.90
12911;DHT22;6523;49.758;6.120;2022-09-01T05:18:55;11.90;99.90
12911;DHT22;6523;49.758;6.120;2022-09-01T05:21:23;11.80;99.90
12911;DHT22;6523;49.758;6.120;2022-09-01T05:23:55;11.70;99.90
12911;DHT22;6523;49.758;6.120;2022-09-01T05:26:27;11.70;99.90
12911;DHT22;6523;49.758;6.120;2022-09-01T05:28:57;11.70;99.90
12911;DHT22;6523;49.758;6.120;2022-09-01T05:31:25;11.80;99.90
12911;DHT22;6523;49.758;6.120;2022-09-01T05:33:52;11.80;99.90
12911;DHT22;6523;49.758;6.120;2022-09-01T05:36:20;11.80;99.90
12911;DHT22;6523;49.758;6.120;2022-09-01T05:38:47;11.80;99.90
12911;DHT22;6523;49.758;6.120;2022-09-01T05:41:16;11.80;99.90
12911;DHT22;6523;49.758;6.120;2022-09-01T05:43:44;11.80;99.90
12911;DHT22;6523;49.758;6.120;2022-09-01T05:46:19;11.70;99.90
12911;DHT22;6523;49.758;6.120;2022-09-01T05:48:46;11.80;99.90
12911;DHT22;6523;49.758;6.120;2022-09-01T05:51:16;11.80;99.90
12911;DHT22;6523;49.758;6.120;2022-09-01T05:53:48;11.70;99.90
12911;DHT22;6523;49.758;6.120;2022-09-01T05:56:18;11.90;99.90
12911;DHT22;6523;49.758;6.120;2022-09-01T05:58:45;12.20;99.90
12911;DHT22;6523;49.758;6.120;2022-09-01T06:01:17;12.10;99.90
12911;DHT22;6523;49.758;6.120;2022-09-01T06:03:49;12.30;99.90
12911;DHT22;6523;49.758;6.120;2022-09-01T06:06:20;12.40;99.90
12911;DHT22;6523;49.758;6.120;2022-09-01T06:08:50;12.50;99.90
12911;DHT22;6523;49.758;6.120;2022-09-01T06:11:17;12.40;99.90
12911;DHT22;6523;49.758;6.120;2022-09-01T06:13:44;12.50;99.90
12911;DHT22;6523;49.758;6.120;2022-09-01T06:16:13;12.60;99.90
12911;DHT22;6523;49.758;6.120;2022-09-01T06:18:41;12.60;99.90
12911;DHT22;6523;49.758;6.120;2022-09-01T06:21:09;12.70;99.90
12911;DHT22;6523;49.758;6.120;2022-09-01T06:23:42;12.60;99.90
12911;DHT22;6523;49.758;6.120;2022-09-01T06:26:36;12.70;99.90
12911;DHT22;6523;49.758;6.120;2022-09-01T06:29:05;12.80;99.90
12911;DHT22;6523;49.758;6.120;2022-09-01T06:31:32;12.80;99.90
12911;DHT22;6523;49.758;6.120;2022-09-01T06:34:01;12.80;99.90
12911;DHT22;6523;49.758;6.120;2022-09-01T06:36:28;12.90;99.90
12911;DHT22;6523;49.758;6.120;2022-09-01T06:38:57;13.00;99.90
12911;DHT22;6523;49.758;6.120;2022-09-01T06:41:24;13.10;99.90
12911;DHT22;6523;49.758;6.120;2022-09-01T06:43:51;13.10;99.90
12911;DHT22;6523;49.758;6.120;2022-09-01T06:46:19;13.20;99.90
12911;DHT22;6523;49.758;6.120;2022-09-01T06:48:46;13.30;99.90
12911;DHT22;6523;49.758;6.120;2022-09-01T06:51:18;13.30;99.90
12911;DHT22;6523;49.758;6.120;2022-09-01T06:53:46;13.30;99.90
12911;DHT22;6523;49.758;6.120;2022-09-01T06:56:15;13.40;99.90
12911;DHT22;6523;49.758;6.120;2022-09-01T06:58:43;13.50;99.90
12911;DHT22;6523;49.758;6.120;2022-09-01T07:01:13;13.50;99.90
12911;DHT22;6523;49.758;6.120;2022-09-01T07:03:41;13.60;99.90
12911;DHT22;6523;49.758;6.120;2022-09-01T07:06:07;13.70;99.90
12911;DHT22;6523;49.758;6.120;2022-09-01T07:08:36;13.90;99.90
12911;DHT22;6523;49.758;6.120;2022-09-01T07:11:08;14.00;99.90
12911;DHT22;6523;49.758;6.120;2022-09-01T07:13:41;14.00;99.90
12911;DHT22;6523;49.758;6.120;2022-09-01T07:16:16;14.10;99.90
12911;DHT22;6523;49.758;6.120;2022-09-01T07:18:49;14.10;99.90
12911;DHT22;6523;49.758;6.120;2022-09-01T07:21:17;14.20;99.90
12911;DHT22;6523;49.758;6.120;2022-09-01T07:23:43;14.30;99.90
12911;DHT22;6523;49.758;6.120;2022-09-01T07:26:09;14.40;99.90
12911;DHT22;6523;49.758;6.120;2022-09-01T07:28:36;14.60;99.90
12911;DHT22;6523;49.758;6.120;2022-09-01T07:31:02;14.60;99.90
12911;DHT22;6523;49.758;6.120;2022-09-01T07:33:31;14.80;99.90
12911;DHT22;6523;49.758;6.120;2022-09-01T07:35:58;15.10;99.90
12911;DHT22;6523;49.758;6.120;2022-09-01T07:38:24;15.00;99.90
12911;DHT22;6523;49.758;6.120;2022-09-01T07:40:51;15.00;99.90
12911;DHT22;6523;49.758;6.120;2022-09-01T07:43:22;15.40;99.90
12911;DHT22;6523;49.758;6.120;2022-09-01T07:45:54;15.60;99.90
12911;DHT22;6523;49.758;6.120;2022-09-01T07:48:22;15.70;99.90
12911;DHT22;6523;49.758;6.120;2022-09-01T07:50:51;15.90;99.90
12911;DHT22;6523;49.758;6.120;2022-09-01T07:53:20;16.00;99.90
12911;DHT22;6523;49.758;6.120;2022-09-01T07:55:49;16.10;99.90
12911;DHT22;6523;49.758;6.120;2022-09-01T07:58:17;16.10;99.90
12911;DHT22;6523;49.758;6.120;2022-09-01T08:00:44;16.20;99.90
12911;DHT22;6523;49.758;6.120;2022-09-01T08:03:15;16.30;99.90
12911;DHT22;6523;49.758;6.120;2022-09-01T08:05:41;16.50;99.90
12911;DHT22;6523;49.758;6.120;2022-09-01T08:08:07;16.60;99.90
12911;DHT22;6523;49.758;6.120;2022-09-01T08:10:33;16.70;99.90
12911;DHT22;6523;49.758;6.120;2022-09-01T08:13:02;16.90;99.90
12911;DHT22;6523;49.758;6.120;2022-09-01T08:15:28;17.00;99.90
12911;DHT22;6523;49.758;6.120;2022-09-01T08:17:53;17.20;99.90
12911;DHT22;6523;49.758;6.120;2022-09-01T08:20:20;17.30;99.90
12911;DHT22;6523;49.758;6.120;2022-09-01T08:22:46;17.40;99.90
12911;DHT22;6523;49.758;6.120;2022-09-01T08:25:11;17.60;99.90
12911;DHT22;6523;49.758;6.120;2022-09-01T08:27:37;17.70;99.90
12911;DHT22;6523;49.758;6.120;2022-09-01T08:30:09;17.90;99.90
12911;DHT22;6523;49.758;6.120;2022-09-01T08:32:35;18.00;99.90
12911;DHT22;6523;49.758;6.120;2022-09-01T08:35:02;18.30;99.90
12911;DHT22;6523;49.758;6.120;2022-09-01T08:37:29;18.40;99.90
12911;DHT22;6523;49.758;6.120;2022-09-01T08:39:55;18.60;99.90
12911;DHT22;6523;49.758;6.120;2022-09-01T08:45:37;18.90;99.90
12911;DHT22;6523;49.758;6.120;2022-09-01T08:48:19;19.00;99.90
12911;DHT22;6523;49.758;6.120;2022-09-01T08:50:50;19.20;99.90
12911;DHT22;6523;49.758;6.120;2022-09-01T08:55:50;19.50;99.90
12911;DHT22;6523;49.758;6.120;2022-09-01T08:58:17;19.70;99.90
12911;DHT22;6523;49.758;6.120;2022-09-01T09:00:46;19.90;99.90
12911;DHT22;6523;49.758;6.120;2022-09-01T09:03:42;20.10;99.90
12911;DHT22;6523;49.758;6.120;2022-09-01T09:06:28;20.40;99.90
12911;DHT22;6523;49.758;6.120;2022-09-01T09:09:00;20.40;99.90
12911;DHT22;6523;49.758;6.120;2022-09-01T09:12:04;20.60;99.90
12911;DHT22;6523;49.758;6.120;2022-09-01T09:14:40;20.60;99.90
12911;DHT22;6523;49.758;6.120;2022-09-01T09:17:10;20.80;99.90
12911;DHT22;6523;49.758;6.120;2022-09-01T09:19:39;20.80;99.90
12911;DHT22;6523;49.758;6.120;2022-09-01T09:22:08;20.80;99.90
12911;DHT22;6523;49.758;6.120;2022-09-01T09:24:50;21.00;99.90
12911;DHT22;6523;49.758;6.120;2022-09-01T09:27:27;21.30;99.90
12911;DHT22;6523;49.758;6.120;2022-09-01T09:29:57;21.50;99.90
12911;DHT22;6523;49.758;6.120;2022-09-01T09:32:50;21.50;99.90
12911;DHT22;6523;49.758;6.120;2022-09-01T09:41:02;22.40;99.90
12911;DHT22;6523;49.758;6.120;2022-09-01T09:43:31;22.60;99.90
12911;DHT22;6523;49.758;6.120;2022-09-01T09:46:35;22.60;99.90
12911;DHT22;6523;49.758;6.120;2022-09-01T09:51:34;22.90;99.90
12911;DHT22;6523;49.758;6.120;2022-09-01T09:54:11;22.90;99.90
12911;DHT22;6523;49.758;6.120;2022-09-01T09:56:38;23.30;99.90
12911;DHT22;6523;49.758;6.120;2022-09-01T09:59:36;23.50;99.90
12911;DHT22;6523;49.758;6.120;2022-09-01T10:04:46;23.20;99.90
12911;DHT22;6523;49.758;6.120;2022-09-01T10:07:31;23.50;99.90
12911;DHT22;6523;49.758;6.120;2022-09-01T10:10:00;23.70;99.90
12911;DHT22;6523;49.758;6.120;2022-09-01T10:12:27;23.50;99.90
12911;DHT22;6523;49.758;6.120;2022-09-01T10:15:08;23.90;99.90
12911;DHT22;6523;49.758;6.120;2022-09-01T10:17:38;23.60;99.90
12911;DHT22;6523;49.758;6.120;2022-09-01T10:20:07;24.20;99.90
12911;DHT22;6523;49.758;6.120;2022-09-01T10:22:36;24.30;99.90
12911;DHT22;6523;49.758;6.120;2022-09-01T10:25:03;24.50;99.90
12911;DHT22;6523;49.758;6.120;2022-09-01T10:27:34;24.50;99.90
12911;DHT22;6523;49.758;6.120;2022-09-01T10:30:17;24.60;99.90
12911;DHT22;6523;49.758;6.120;2022-09-01T10:32:52;25.00;99.90
12911;DHT22;6523;49.758;6.120;2022-09-01T10:37:50;25.10;99.90
12911;DHT22;6523;49.758;6.120;2022-09-01T10:42:50;25.70;99.90
12911;DHT22;6523;49.758;6.120;2022-09-01T10:45:35;25.80;99.90
12911;DHT22;6523;49.758;6.120;2022-09-01T10:50:48;25.80;99.90
12911;DHT22;6523;49.758;6.120;2022-09-01T10:56:35;26.00;99.90
12911;DHT22;6523;49.758;6.120;2022-09-01T10:59:24;25.10;99.90
12911;DHT22;6523;49.758;6.120;2022-09-01T11:07:29;25.10;99.90
12911;DHT22;6523;49.758;6.120;2022-09-01T11:12:46;26.40;99.90
12911;DHT22;6523;49.758;6.120;2022-09-01T11:20:26;24.30;99.90
12911;DHT22;6523;49.758;6.120;2022-09-01T11:25:44;25.40;99.90
12911;DHT22;6523;49.758;6.120;2022-09-01T11:30:46;25.30;99.90
12911;DHT22;6523;49.758;6.120;2022-09-01T11:44:14;24.30;99.90
12911;DHT22;6523;49.758;6.120;2022-09-01T11:46:40;23.70;99.90
12911;DHT22;6523;49.758;6.120;2022-09-01T11:49:25;24.90;99.90
12911;DHT22;6523;49.758;6.120;2022-09-01T11:51:52;25.90;99.90
12911;DHT22;6523;49.758;6.120;2022-09-01T11:54:18;26.30;99.90
12911;DHT22;6523;49.758;6.120;2022-09-01T11:56:44;26.70;99.90
12911;DHT22;6523;49.758;6.120;2022-09-01T11:59:10;25.90;99.90
12911;DHT22;6523;49.758;6.120;2022-09-01T12:01:37;25.80;99.90
12911;DHT22;6523;49.758;6.120;2022-09-01T12:04:24;25.20;99.90
12911;DHT22;6523;49.758;6.120;2022-09-01T12:06:57;26.30;99.90
12911;DHT22;6523;49.758;6.120;2022-09-01T12:09:35;27.20;99.90
12911;DHT22;6523;49.758;6.120;2022-09-01T12:12:03;27.80;99.90
12911;DHT22;6523;49.758;6.120;2022-09-01T12:14:29;28.10;99.90
12911;DHT22;6523;49.758;6.120;2022-09-01T12:16:58;27.90;99.90
12911;DHT22;6523;49.758;6.120;2022-09-01T12:19:33;28.60;99.90
12911;DHT22;6523;49.758;6.120;2022-09-01T12:22:05;28.60;99.90
12911;DHT22;6523;49.758;6.120;2022-09-01T12:24:34;29.10;99.90
12911;DHT22;6523;49.758;6.120;2022-09-01T12:27:00;28.00;99.90
12911;DHT22;6523;49.758;6.120;2022-09-01T12:29:27;26.70;97.80
12911;DHT22;6523;49.758;6.120;2022-09-01T12:31:54;25.70;91.00
12911;DHT22;6523;49.758;6.120;2022-09-01T12:37:21;25.90;96.10
12911;DHT22;6523;49.758;6.120;2022-09-01T12:39:51;27.00;84.50
12911;DHT22;6523;49.758;6.120;2022-09-01T12:49:58;29.10;62.10
12911;DHT22;6523;49.758;6.120;2022-09-01T12:52:25;28.80;52.80
12911;DHT22;6523;49.758;6.120;2022-09-01T13:00:18;26.30;33.00
12911;DHT22;6523;49.758;6.120;2022-09-01T13:05:34;28.30;38.50
12911;DHT22;6523;49.758;6.120;2022-09-01T13:08:05;28.70;29.80
12911;DHT22;6523;49.758;6.120;2022-09-01T13:10:35;28.40;27.10
12911;DHT22;6523;49.758;6.120;2022-09-01T13:13:03;27.50;20.60
12911;DHT22;6523;49.758;6.120;2022-09-01T13:15:29;26.50;21.60
12911;DHT22;6523;49.758;6.120;2022-09-01T13:17:56;27.60;19.30
12911;DHT22;6523;49.758;6.120;2022-09-01T13:20:21;27.80;18.20
12911;DHT22;6523;49.758;6.120;2022-09-01T13:22:47;26.90;11.70
12911;DHT22;6523;49.758;6.120;2022-09-01T13:25:18;26.00;11.20
12911;DHT22;6523;49.758;6.120;2022-09-01T13:27:45;25.50;14.00
12911;DHT22;6523;49.758;6.120;2022-09-01T13:30:14;25.20;18.10
12911;DHT22;6523;49.758;6.120;2022-09-01T13:32:41;25.40;22.00
12911;DHT22;6523;49.758;6.120;2022-09-01T13:35:08;25.20;18.40
12911;DHT22;6523;49.758;6.120;2022-09-01T13:37:34;25.10;20.80
12911;DHT22;6523;49.758;6.120;2022-09-01T13:40:00;25.10;17.60
12911;DHT22;6523;49.758;6.120;2022-09-01T13:42:25;25.10;18.80
12911;DHT22;6523;49.758;6.120;2022-09-01T13:44:51;24.90;16.80
12911;DHT22;6523;49.758;6.120;2022-09-01T13:47:17;24.70;14.30
12911;DHT22;6523;49.758;6.120;2022-09-01T13:49:42;24.80;14.90
12911;DHT22;6523;49.758;6.120;2022-09-01T13:52:08;24.80;15.20
12911;DHT22;6523;49.758;6.120;2022-09-01T13:54:33;24.80;15.40
12911;DHT22;6523;49.758;6.120;2022-09-01T13:56:59;24.80;16.90
12911;DHT22;6523;49.758;6.120;2022-09-01T13:59:24;24.70;12.90
12911;DHT22;6523;49.758;6.120;2022-09-01T14:01:50;24.80;15.70
12911;DHT22;6523;49.758;6.120;2022-09-01T14:04:16;24.70;12.50
12911;DHT22;6523;49.758;6.120;2022-09-01T14:06:43;24.80;17.30
12911;DHT22;6523;49.758;6.120;2022-09-01T14:09:13;26.40;16.50
12911;DHT22;6523;49.758;6.120;2022-09-01T14:11:39;27.70;7.20
12911;DHT22;6523;49.758;6.120;2022-09-01T14:14:05;26.80;1.00
12911;DHT22;6523;49.758;6.120;2022-09-01T14:16:31;25.60;1.00
12911;DHT22;6523;49.758;6.120;2022-09-01T14:18:57;25.10;6.20
12911;DHT22;6523;49.758;6.120;2022-09-01T14:21:25;24.90;7.60
12911;DHT22;6523;49.758;6.120;2022-09-01T14:23:51;24.80;10.60
12911;DHT22;6523;49.758;6.120;2022-09-01T14:26:17;24.60;11.10
12911;DHT22;6523;49.758;6.120;2022-09-01T14:28:44;24.40;10.00
12911;DHT22;6523;49.758;6.120;2022-09-01T14:31:14;24.40;10.60
12911;DHT22;6523;49.758;6.120;2022-09-01T14:33:42;24.40;13.20
12911;DHT22;6523;49.758;6.120;2022-09-01T14:36:14;24.40;11.80
12911;DHT22;6523;49.758;6.120;2022-09-01T14:38:40;24.50;11.10
12911;DHT22;6523;49.758;6.120;2022-09-01T14:41:06;25.30;12.70
12911;DHT22;6523;49.758;6.120;2022-09-01T14:43:31;26.50;8.20
12911;DHT22;6523;49.758;6.120;2022-09-01T14:46:06;27.50;1.00
12911;DHT22;6523;49.758;6.120;2022-09-01T14:48:36;26.80;1.00
12911;DHT22;6523;49.758;6.120;2022-09-01T14:51:02;25.60;1.00
12911;DHT22;6523;49.758;6.120;2022-09-01T14:53:30;24.80;2.00
12911;DHT22;6523;49.758;6.120;2022-09-01T14:55:57;24.60;6.40
12911;DHT22;6523;49.758;6.120;2022-09-01T14:58:23;24.40;5.80
12911;DHT22;6523;49.758;6.120;2022-09-01T15:00:51;24.10;8.50
12911;DHT22;6523;49.758;6.120;2022-09-01T15:03:17;24.20;12.10
12911;DHT22;6523;49.758;6.120;2022-09-01T15:05:43;24.10;9.80
12911;DHT22;6523;49.758;6.120;2022-09-01T15:08:09;23.90;10.70
12911;DHT22;6523;49.758;6.120;2022-09-01T15:10:35;23.70;8.50
12911;DHT22;6523;49.758;6.120;2022-09-01T15:13:01;23.80;14.90
12911;DHT22;6523;49.758;6.120;2022-09-01T15:15:28;23.90;13.70
12911;DHT22;6523;49.758;6.120;2022-09-01T15:17:55;24.00;13.60
12911;DHT22;6523;49.758;6.120;2022-09-01T15:20:21;23.90;13.20
12911;DHT22;6523;49.758;6.120;2022-09-01T15:23:06;23.90;14.90
12911;DHT22;6523;49.758;6.120;2022-09-01T15:25:32;24.10;13.40
12911;DHT22;6523;49.758;6.120;2022-09-01T15:27:58;24.00;14.20
12911;DHT22;6523;49.758;6.120;2022-09-01T15:30:23;24.00;14.10
12911;DHT22;6523;49.758;6.120;2022-09-01T15:32:51;24.00;13.50
12911;DHT22;6523;49.758;6.120;2022-09-01T15:35:18;24.20;15.70
12911;DHT22;6523;49.758;6.120;2022-09-01T15:37:46;24.20;16.50
12911;DHT22;6523;49.758;6.120;2022-09-01T15:40:12;24.40;15.40
12911;DHT22;6523;49.758;6.120;2022-09-01T15:42:38;24.40;16.10
12911;DHT22;6523;49.758;6.120;2022-09-01T15:45:10;24.30;14.30
12911;DHT22;6523;49.758;6.120;2022-09-01T15:47:36;24.20;15.70
12911;DHT22;6523;49.758;6.120;2022-09-01T15:50:07;24.30;20.30
12911;DHT22;6523;49.758;6.120;2022-09-01T15:52:34;24.30;19.20
12911;DHT22;6523;49.758;6.120;2022-09-01T15:55:00;24.40;17.90
12911;DHT22;6523;49.758;6.120;2022-09-01T15:57:26;24.30;16.60
12911;DHT22;6523;49.758;6.120;2022-09-01T15:59:52;24.30;20.30
12911;DHT22;6523;49.758;6.120;2022-09-01T16:02:17;24.30;15.00
12911;DHT22;6523;49.758;6.120;2022-09-01T16:04:46;24.20;17.20
12911;DHT22;6523;49.758;6.120;2022-09-01T16:07:11;24.30;24.90
12911;DHT22;6523;49.758;6.120;2022-09-01T16:09:37;24.20;24.50
12911;DHT22;6523;49.758;6.120;2022-09-01T16:12:03;24.10;35.70
12911;DHT22;6523;49.758;6.120;2022-09-01T16:14:30;23.80;42.70
12911;DHT22;6523;49.758;6.120;2022-09-01T16:17:15;23.60;47.40
12911;DHT22;6523;49.758;6.120;2022-09-01T16:19:47;23.30;55.10
12911;DHT22;6523;49.758;6.120;2022-09-01T16:24:48;22.80;74.30
12911;DHT22;6523;49.758;6.120;2022-09-01T16:27:17;22.70;78.20
12911;DHT22;6523;49.758;6.120;2022-09-01T16:29:49;22.90;83.20
12911;DHT22;6523;49.758;6.120;2022-09-01T16:32:16;23.10;77.80
12911;DHT22;6523;49.758;6.120;2022-09-01T16:34:46;23.20;73.10
12911;DHT22;6523;49.758;6.120;2022-09-01T16:37:27;23.70;81.80
12911;DHT22;6523;49.758;6.120;2022-09-01T16:42:47;23.80;63.30
12911;DHT22;6523;49.758;6.120;2022-09-01T16:48:35;24.20;64.60
12911;DHT22;6523;49.758;6.120;2022-09-01T16:51:21;24.10;70.50
12911;DHT22;6523;49.758;6.120;2022-09-01T16:53:53;24.10;66.90
12911;DHT22;6523;49.758;6.120;2022-09-01T16:56:33;24.20;56.20
12911;DHT22;6523;49.758;6.120;2022-09-01T17:04:57;24.00;42.20
12911;DHT22;6523;49.758;6.120;2022-09-01T17:07:30;23.80;31.10
12911;DHT22;6523;49.758;6.120;2022-09-01T17:12:53;23.50;37.30
12911;DHT22;6523;49.758;6.120;2022-09-01T17:15:32;23.30;36.90
12911;DHT22;6523;49.758;6.120;2022-09-01T17:20:49;23.00;36.90
12911;DHT22;6523;49.758;6.120;2022-09-01T17:23:23;22.80;30.70
12911;DHT22;6523;49.758;6.120;2022-09-01T17:26:02;22.60;36.80
12911;DHT22;6523;49.758;6.120;2022-09-01T17:28:33;22.40;43.10
12911;DHT22;6523;49.758;6.120;2022-09-01T17:31:08;22.20;64.60
12911;DHT22;6523;49.758;6.120;2022-09-01T17:34:02;21.90;83.20
12911;DHT22;6523;49.758;6.120;2022-09-01T17:42:32;21.20;98.40
12911;DHT22;6523;49.758;6.120;2022-09-01T17:47:45;20.80;99.90